createdAt,value
2023-02-21T00:01:05.984Z,71.20
2023-02-21T00:02:32.393Z,70.62
2023-02-21T00:03:53.601Z,73.71
2023-02-21T00:05:14.900Z,71.26
2023-02-21T00:06:36.555Z,74.80
2023-02-21T00:07:58.411Z,71.19
2023-02-21T00:09:19.865Z,69.83
2023-02-21T00:10:41.120Z,73.36
2023-02-21T00:12:02.566Z,73.02
2023-02-21T00:13:23.929Z,70.94
2023-02-21T00:14:45.797Z,73.80
2023-02-21T00:16:07.348Z,75.36
2023-02-21T00:17:28.808Z,73.05
2023-02-21T00:18:55.156Z,72.69
2023-02-21T00:20:18.385Z,69.82
2023-02-21T00:21:41.042Z,71.98
2023-02-21T00:23:04.517Z,71.22
2023-02-21T00:24:27.048Z,69.71
2023-02-21T00:25:48.247Z,70.03
2023-02-21T00:27:09.799Z,70.05
2023-02-21T00:28:31.266Z,69.73
2023-02-21T00:29:52.678Z,70.62
2023-02-21T00:31:14.655Z,71.02
2023-02-21T00:32:36.545Z,68.62
2023-02-21T00:33:58.125Z,71.40
2023-02-21T00:35:19.603Z,71.62
2023-02-21T00:36:40.894Z,69.65
2023-02-21T00:38:02.552Z,70.14
2023-02-21T00:39:24.104Z,69.32
2023-02-21T00:40:45.346Z,69.59
2023-02-21T00:42:06.850Z,70.46
2023-02-21T00:43:27.968Z,73.46
2023-02-21T00:44:49.610Z,70.86
2023-02-21T00:46:11.274Z,72.34
2023-02-21T00:47:32.954Z,72.98
2023-02-21T00:48:54.521Z,74.26
2023-02-21T00:50:16.577Z,73.23
2023-02-21T00:51:37.918Z,71.62
2023-02-21T00:52:59.988Z,72.31
2023-02-21T00:54:21.533Z,72.22
2023-02-21T00:55:45.924Z,72.76
2023-02-21T00:57:07.564Z,71.40
2023-02-21T00:58:29.289Z,71.61
2023-02-21T00:59:50.797Z,72.30
2023-02-21T01:01:12.473Z,72.90
2023-02-21T01:02:34.556Z,72.23
2023-02-21T01:03:56.181Z,72.40
2023-02-21T01:05:17.445Z,76.29
2023-02-21T01:06:38.921Z,70.21
2023-02-21T01:08:00.139Z,71.06
2023-02-21T01:09:21.651Z,73.05
2023-02-21T01:10:42.901Z,75.38
2023-02-21T01:12:04.494Z,73.38
2023-02-21T01:13:27.448Z,72.62
2023-02-21T01:14:48.614Z,71.35
2023-02-21T01:16:10.484Z,72.00
2023-02-21T01:17:32.249Z,69.95
2023-02-21T01:18:53.702Z,69.91
2023-02-21T01:20:14.980Z,72.03
2023-02-21T01:21:37.500Z,69.63
2023-02-21T01:22:59.111Z,72.47
2023-02-21T01:24:21.188Z,75.17
2023-02-21T01:25:42.622Z,72.85
2023-02-21T01:27:04.112Z,73.00
2023-02-21T01:28:26.852Z,72.77
2023-02-21T01:29:48.774Z,70.47
2023-02-21T01:31:11.540Z,71.68
2023-02-21T01:32:33.050Z,72.16
2023-02-21T01:33:59.339Z,71.48
2023-02-21T01:35:20.779Z,71.61
2023-02-21T01:36:42.619Z,70.83
2023-02-21T01:38:04.156Z,72.01
2023-02-21T01:39:26.415Z,70.76
2023-02-21T01:40:47.886Z,69.40
2023-02-21T01:42:09.060Z,69.29
2023-02-21T01:43:40.488Z,72.65
2023-02-21T01:45:04.837Z,71.37
2023-02-21T01:46:30.303Z,72.45
2023-02-21T01:47:52.316Z,72.59
2023-02-21T01:49:15.051Z,72.19
2023-02-21T01:50:49.870Z,74.12
2023-02-21T01:52:11.985Z,72.37
2023-02-21T01:53:45.210Z,68.16
2023-02-21T01:55:10.196Z,72.83
2023-02-21T01:56:31.795Z,69.30
2023-02-21T01:57:54.807Z,73.51
2023-02-21T01:59:19.470Z,72.19
2023-02-21T02:00:41.116Z,70.17
2023-02-21T02:02:14.728Z,72.51
2023-02-21T02:03:38.923Z,73.55
2023-02-21T02:05:00.861Z,70.69
2023-02-21T02:06:25.963Z,70.82
2023-02-21T02:07:48.224Z,68.12
2023-02-21T02:09:09.617Z,68.34
2023-02-21T02:10:33.072Z,68.89
2023-02-21T02:12:06.310Z,70.22
2023-02-21T02:13:47.788Z,74.00
2023-02-21T02:15:22.679Z,73.89
2023-02-21T02:17:16.474Z,72.07
2023-02-21T02:18:39.405Z,71.09
2023-02-21T02:20:01.236Z,71.00
2023-02-21T02:21:58.107Z,70.15
2023-02-21T02:23:15.409Z,69.82
2023-02-21T02:24:49.039Z,69.12
2023-02-21T02:26:10.670Z,71.22
2023-02-21T02:27:42.572Z,70.02
2023-02-21T02:29:19.113Z,71.20
2023-02-21T02:32:20.399Z,69.53
2023-02-21T02:33:42.187Z,67.60
2023-02-21T02:35:17.240Z,69.44
2023-02-21T02:36:27.317Z,69.36
2023-02-21T02:37:40.581Z,70.51
2023-02-21T02:38:55.277Z,73.33
2023-02-21T02:40:10.831Z,70.09
2023-02-21T02:41:27.865Z,69.07
2023-02-21T02:42:38.992Z,70.41
2023-02-21T02:43:51.617Z,70.30
2023-02-21T02:45:03.280Z,73.77
2023-02-21T02:46:20.377Z,71.42
2023-02-21T02:47:30.123Z,72.04
2023-02-21T02:48:52.075Z,71.68
2023-02-21T02:49:55.907Z,73.94
2023-02-21T02:51:02.889Z,70.46
2023-02-21T02:52:08.526Z,72.38
2023-02-21T02:53:11.405Z,71.92
2023-02-21T02:54:16.345Z,72.72
2023-02-21T02:55:41.862Z,70.43
2023-02-21T02:56:46.930Z,69.63
2023-02-21T02:57:52.070Z,70.42
2023-02-21T02:59:05.382Z,68.96
2023-02-21T03:00:10.873Z,72.62
2023-02-21T03:01:23.036Z,70.75
2023-02-21T03:02:47.417Z,74.40
2023-02-21T03:04:14.067Z,70.94
2023-02-21T03:05:51.152Z,72.65
2023-02-21T03:07:08.572Z,71.96
2023-02-21T03:08:45.190Z,70.44
2023-02-21T03:09:57.058Z,68.69
2023-02-21T03:11:21.685Z,70.54
2023-02-21T03:12:48.458Z,71.40
2023-02-21T03:14:14.569Z,72.68
2023-02-21T03:15:44.215Z,71.95
2023-02-21T03:16:53.276Z,73.25
2023-02-21T03:18:31.692Z,70.43
2023-02-21T03:19:39.122Z,68.44
2023-02-21T03:20:43.623Z,68.66
2023-02-21T03:21:55.520Z,68.16
2023-02-21T03:23:02.821Z,69.99
2023-02-21T03:24:07.529Z,69.38
2023-02-21T03:25:12.042Z,69.37
2023-02-21T03:26:17.056Z,70.95
2023-02-21T03:27:23.160Z,69.89
2023-02-21T03:28:37.068Z,69.40
2023-02-21T03:29:40.854Z,72.27
2023-02-21T03:30:46.833Z,70.50
2023-02-21T03:32:12.126Z,70.63
2023-02-21T03:33:15.082Z,72.77
2023-02-21T03:34:18.114Z,72.73
2023-02-21T03:35:22.218Z,69.95
2023-02-21T03:36:25.790Z,72.90
2023-02-21T03:37:36.706Z,70.96
2023-02-21T03:38:40.139Z,71.71
2023-02-21T03:39:43.759Z,71.21
2023-02-21T03:40:46.655Z,70.25
2023-02-21T03:41:49.557Z,68.46
2023-02-21T03:42:54.753Z,67.75
2023-02-21T03:43:57.808Z,67.96
2023-02-21T03:45:00.688Z,69.52
2023-02-21T03:46:03.864Z,69.01
2023-02-21T03:47:07.334Z,67.44
2023-02-21T03:48:11.318Z,67.51
2023-02-21T03:49:15.746Z,68.17
2023-02-21T03:50:18.959Z,68.75
2023-02-21T03:51:22.448Z,70.01
2023-02-21T03:52:25.874Z,70.31
2023-02-21T03:53:29.022Z,69.65
2023-02-21T03:54:32.219Z,68.25
2023-02-21T03:55:35.495Z,69.01
2023-02-21T03:56:42.371Z,70.01
2023-02-21T03:58:02.460Z,67.79
2023-02-21T03:59:05.806Z,68.88
2023-02-21T04:00:09.723Z,71.86
2023-02-21T04:01:18.260Z,71.44
2023-02-21T04:02:21.240Z,72.21
2023-02-21T04:03:24.503Z,70.06
2023-02-21T04:04:31.237Z,70.36
2023-02-21T04:05:42.499Z,69.25
2023-02-21T04:06:45.888Z,68.06
2023-02-21T04:07:48.886Z,68.07
2023-02-21T04:08:52.383Z,68.53
2023-02-21T04:09:56.154Z,68.59
2023-02-21T04:11:07.487Z,70.24
2023-02-21T04:12:12.966Z,68.95
2023-02-21T04:13:16.453Z,70.43
2023-02-21T04:14:22.003Z,72.88
2023-02-21T04:15:25.390Z,73.16
2023-02-21T04:16:28.332Z,71.04
2023-02-21T04:17:31.912Z,71.88
2023-02-21T04:18:37.695Z,70.57
2023-02-21T04:19:43.850Z,69.70
2023-02-21T04:20:47.450Z,71.54
2023-02-21T04:21:54.847Z,73.26
2023-02-21T04:23:03.308Z,71.45
2023-02-21T04:24:06.919Z,71.70
2023-02-21T04:25:10.185Z,71.03
2023-02-21T04:26:18.382Z,69.40
2023-02-21T04:27:27.056Z,69.05
2023-02-21T04:28:32.257Z,68.88
2023-02-21T04:29:35.369Z,71.13
2023-02-21T04:30:38.656Z,72.59
2023-02-21T04:31:41.644Z,71.31
2023-02-21T04:32:49.204Z,69.91
2023-02-21T04:34:02.542Z,70.44
2023-02-21T04:35:12.949Z,68.74
2023-02-21T04:36:16.021Z,72.27
2023-02-21T04:37:19.273Z,71.77
2023-02-21T04:38:22.334Z,71.80
2023-02-21T04:39:25.419Z,72.25
2023-02-21T04:40:28.433Z,71.38
2023-02-21T04:41:32.379Z,71.82
2023-02-21T04:42:35.371Z,71.48
2023-02-21T04:43:42.834Z,70.15
2023-02-21T04:44:58.265Z,69.79
2023-02-21T04:46:02.686Z,71.41
2023-02-21T04:47:05.530Z,71.92
2023-02-21T04:48:08.448Z,70.14
2023-02-21T04:49:13.555Z,70.84
2023-02-21T04:50:16.497Z,68.81
2023-02-21T04:51:22.664Z,69.35
2023-02-21T04:52:25.711Z,69.17
2023-02-21T04:53:28.570Z,68.85
2023-02-21T04:54:31.652Z,69.92
2023-02-21T04:55:34.503Z,69.21
2023-02-21T04:56:38.027Z,68.42
2023-02-21T04:57:40.899Z,69.25
2023-02-21T04:58:45.537Z,68.91
2023-02-21T04:59:48.806Z,70.82
2023-02-21T05:00:51.824Z,71.62
2023-02-21T05:01:54.733Z,71.83
2023-02-21T05:02:57.900Z,72.37
2023-02-21T05:04:01.185Z,70.50
2023-02-21T05:05:04.152Z,69.25
2023-02-21T05:06:07.423Z,67.91
2023-02-21T05:07:10.338Z,68.00
2023-02-21T05:08:13.269Z,71.89
2023-02-21T05:09:16.224Z,70.27
2023-02-21T05:10:19.350Z,70.47
2023-02-21T05:11:22.957Z,70.20
2023-02-21T05:12:25.976Z,69.94
2023-02-21T05:13:28.786Z,69.75
2023-02-21T05:14:31.692Z,69.65
2023-02-21T05:15:34.709Z,72.70
2023-02-21T05:16:37.560Z,70.96
2023-02-21T05:17:40.589Z,71.03
2023-02-21T05:18:44.484Z,70.04
2023-02-21T05:19:47.584Z,69.25
2023-02-21T05:20:50.452Z,70.62
2023-02-21T05:21:57.886Z,69.39
2023-02-21T05:23:11.651Z,69.80
2023-02-21T05:24:16.245Z,71.14
2023-02-21T05:25:22.809Z,72.29
2023-02-21T05:26:31.508Z,69.85
2023-02-21T05:27:34.468Z,69.28
2023-02-21T05:28:38.562Z,70.91
2023-02-21T05:29:51.867Z,72.65
2023-02-21T05:30:55.623Z,68.68
2023-02-21T05:31:58.538Z,69.61
2023-02-21T05:33:01.470Z,69.98
2023-02-21T05:34:04.339Z,69.74
2023-02-21T05:35:08.153Z,70.47
2023-02-21T05:36:11.139Z,70.36
2023-02-21T05:37:15.372Z,72.32
2023-02-21T05:38:20.956Z,72.63
2023-02-21T05:39:23.922Z,74.03
2023-02-21T05:40:26.846Z,71.02
2023-02-21T05:41:30.041Z,71.41
2023-02-21T05:42:33.063Z,71.02
2023-02-21T05:43:35.938Z,71.58
2023-02-21T05:44:39.109Z,71.23
2023-02-21T05:45:42.258Z,71.00
2023-02-21T05:46:46.119Z,70.66
2023-02-21T05:47:48.975Z,71.86
2023-02-21T05:48:52.220Z,72.28
2023-02-21T05:49:55.319Z,71.01
2023-02-21T05:50:58.277Z,73.63
2023-02-21T05:52:01.083Z,69.87
2023-02-21T05:53:04.020Z,72.00
2023-02-21T05:54:09.304Z,71.21
2023-02-21T05:55:12.115Z,70.93
2023-02-21T05:56:16.901Z,71.29
2023-02-21T05:57:20.685Z,70.56
2023-02-21T05:58:23.560Z,69.90
2023-02-21T05:59:26.426Z,72.40
2023-02-21T06:00:30.431Z,71.64
2023-02-21T06:01:33.324Z,71.36
2023-02-21T06:02:36.170Z,70.76
2023-02-21T06:03:39.283Z,69.80
2023-02-21T06:04:42.183Z,69.69
2023-02-21T06:05:45.107Z,70.77
2023-02-21T06:06:47.927Z,70.63
2023-02-21T06:07:50.919Z,70.22
2023-02-21T06:08:53.810Z,70.04
2023-02-21T06:09:57.129Z,73.28
2023-02-21T06:10:59.968Z,70.38
2023-02-21T06:12:03.098Z,70.04
2023-02-21T06:13:05.901Z,69.31
2023-02-21T06:14:17.388Z,69.76
2023-02-21T06:15:20.293Z,69.71
2023-02-21T06:16:23.826Z,69.52
2023-02-21T06:17:26.836Z,72.20
2023-02-21T06:18:29.726Z,71.88
2023-02-21T06:19:33.551Z,70.40
2023-02-21T06:20:36.433Z,70.25
2023-02-21T06:21:42.034Z,70.21
2023-02-21T06:22:45.024Z,70.77
2023-02-21T06:23:48.416Z,72.00
2023-02-21T06:24:52.242Z,72.09
2023-02-21T06:25:55.251Z,71.36
2023-02-21T06:26:58.095Z,71.29
2023-02-21T06:28:01.011Z,71.83
2023-02-21T06:29:07.333Z,73.48
2023-02-21T06:30:11.173Z,71.02
2023-02-21T06:31:14.839Z,71.36
2023-02-21T06:32:18.102Z,70.00
2023-02-21T06:33:21.137Z,70.45
2023-02-21T06:34:24.052Z,72.10
2023-02-21T06:35:26.994Z,74.70
2023-02-21T06:36:30.102Z,71.34
2023-02-21T06:37:32.932Z,70.41
2023-02-21T06:38:35.786Z,71.96
2023-02-21T06:39:39.566Z,70.95
2023-02-21T06:40:43.171Z,70.30
2023-02-21T06:41:46.061Z,69.21
2023-02-21T06:42:48.924Z,69.94
2023-02-21T06:43:52.955Z,72.86
2023-02-21T06:44:55.812Z,72.96
2023-02-21T06:45:58.796Z,71.22
2023-02-21T06:47:02.166Z,71.04
2023-02-21T06:48:05.320Z,71.84
2023-02-21T06:49:08.165Z,74.10
2023-02-21T06:50:11.059Z,72.26
2023-02-21T06:51:14.807Z,71.92
2023-02-21T06:52:17.870Z,70.47
2023-02-21T06:53:20.814Z,70.63
2023-02-21T06:54:23.721Z,71.19
2023-02-21T06:55:26.559Z,72.65
2023-02-21T06:56:29.702Z,74.52
2023-02-21T06:57:32.508Z,73.95
2023-02-21T06:58:35.718Z,73.21
2023-02-21T06:59:38.569Z,72.71
2023-02-21T07:00:41.453Z,72.33
2023-02-21T07:01:44.941Z,71.23
2023-02-21T07:02:47.846Z,74.20
2023-02-21T07:03:52.485Z,72.27
2023-02-21T07:04:55.663Z,71.61
2023-02-21T07:05:58.603Z,74.18
2023-02-21T07:07:01.769Z,71.68
2023-02-21T07:08:04.949Z,71.14
2023-02-21T07:09:07.954Z,70.15
2023-02-21T07:10:10.927Z,70.26
2023-02-21T07:11:15.703Z,70.14
2023-02-21T07:12:18.860Z,73.31
2023-02-21T07:13:22.655Z,70.08
2023-02-21T07:14:25.539Z,69.29
2023-02-21T07:15:28.611Z,70.92
2023-02-21T07:16:31.487Z,70.34
2023-02-21T07:17:34.459Z,70.90
2023-02-21T07:18:37.349Z,71.26
2023-02-21T07:19:42.200Z,70.84
2023-02-21T07:20:45.176Z,70.58
2023-02-21T07:21:48.357Z,73.96
2023-02-21T07:22:51.279Z,71.22
2023-02-21T07:23:54.317Z,71.39
2023-02-21T07:24:57.130Z,72.63
2023-02-21T07:25:59.970Z,71.78
2023-02-21T07:27:02.778Z,73.30
2023-02-21T07:28:05.783Z,74.18
2023-02-21T07:29:08.780Z,71.28
2023-02-21T07:30:11.955Z,71.31
2023-02-21T07:31:17.108Z,70.98
2023-02-21T07:33:25.684Z,74.80
2023-02-21T07:34:28.560Z,71.84
2023-02-21T07:35:31.408Z,72.35
2023-02-21T07:36:34.293Z,71.96
2023-02-21T07:37:37.138Z,71.61
2023-02-21T07:38:40.085Z,71.16
2023-02-21T07:39:43.020Z,71.34
2023-02-21T07:40:45.848Z,73.13
2023-02-21T07:41:48.703Z,71.98
2023-02-21T07:42:58.372Z,69.93
2023-02-21T07:44:01.595Z,68.95
2023-02-21T07:45:04.718Z,71.23
2023-02-21T07:46:16.395Z,70.92
2023-02-21T07:47:19.264Z,70.96
2023-02-21T07:48:22.187Z,69.40
2023-02-21T07:49:25.055Z,69.49
2023-02-21T07:50:27.975Z,69.69
2023-02-21T07:51:31.045Z,69.52
2023-02-21T07:52:34.054Z,70.14
2023-02-21T07:53:37.319Z,72.00
2023-02-21T07:54:40.146Z,71.04
2023-02-21T07:55:43.811Z,68.92
2023-02-21T07:56:48.836Z,69.43
2023-02-21T07:57:51.944Z,67.26
2023-02-21T07:58:54.776Z,68.07
2023-02-21T07:59:57.776Z,69.07
2023-02-21T08:01:00.632Z,69.60
2023-02-21T08:02:04.647Z,69.86
2023-02-21T08:03:09.274Z,70.31
2023-02-21T08:04:13.199Z,70.87
2023-02-21T08:05:17.428Z,71.16
2023-02-21T08:06:20.487Z,69.22
2023-02-21T08:07:23.419Z,70.98
2023-02-21T08:08:26.825Z,70.70
2023-02-21T08:09:29.691Z,70.90
2023-02-21T08:10:32.450Z,71.42
2023-02-21T08:11:36.770Z,75.21
2023-02-21T08:12:40.161Z,73.38
2023-02-21T08:13:42.951Z,71.68
2023-02-21T08:14:45.820Z,70.54
2023-02-21T08:15:48.690Z,70.86
2023-02-21T08:16:51.573Z,68.36
2023-02-21T08:17:54.414Z,67.92
2023-02-21T08:18:57.336Z,68.27
2023-02-21T08:20:00.554Z,69.74
2023-02-21T08:21:04.552Z,68.18
2023-02-21T08:22:07.600Z,71.09
2023-02-21T08:23:10.418Z,68.97
2023-02-21T08:24:13.630Z,68.65
2023-02-21T08:25:17.629Z,70.77
2023-02-21T08:26:20.869Z,72.82
2023-02-21T08:27:23.734Z,70.09
2023-02-21T08:28:26.650Z,68.34
2023-02-21T08:29:29.447Z,68.78
2023-02-21T08:30:32.378Z,70.40
2023-02-21T08:31:36.542Z,68.28
2023-02-21T08:32:39.473Z,68.95
2023-02-21T08:33:42.283Z,69.82
2023-02-21T08:34:46.171Z,70.48
2023-02-21T08:35:49.134Z,69.47
2023-02-21T08:36:52.087Z,69.96
2023-02-21T08:38:02.663Z,68.49
2023-02-21T08:39:06.134Z,67.02
2023-02-21T08:40:09.666Z,66.25
2023-02-21T08:41:12.836Z,68.38
2023-02-21T08:42:16.067Z,68.33
2023-02-21T08:43:18.906Z,68.84
2023-02-21T08:44:21.879Z,69.07
2023-02-21T08:45:25.975Z,67.73
2023-02-21T08:46:28.858Z,70.43
2023-02-21T08:47:35.275Z,70.79
2023-02-21T08:48:38.114Z,69.31
2023-02-21T08:49:45.124Z,69.35
2023-02-21T08:50:48.035Z,68.04
2023-02-21T08:51:50.923Z,68.41
2023-02-21T08:52:54.744Z,69.10
2023-02-21T08:53:58.286Z,70.82
2023-02-21T08:55:01.146Z,67.46
2023-02-21T08:56:04.184Z,68.92
2023-02-21T08:57:07.139Z,68.34
2023-02-21T08:58:12.860Z,67.63
2023-02-21T08:59:15.818Z,67.14
2023-02-21T09:00:23.483Z,69.39
2023-02-21T09:01:32.823Z,69.69
2023-02-21T09:02:36.242Z,69.07
2023-02-21T09:03:39.349Z,69.55
2023-02-21T09:04:42.289Z,69.54
2023-02-21T09:05:45.206Z,70.55
2023-02-21T09:06:51.362Z,70.64
2023-02-21T09:07:58.747Z,68.95
2023-02-21T09:09:01.732Z,67.84
2023-02-21T09:10:06.117Z,68.97
2023-02-21T09:11:08.975Z,68.96
2023-02-21T09:12:12.363Z,69.40
2023-02-21T09:13:15.136Z,69.63
2023-02-21T09:14:18.098Z,70.51
2023-02-21T09:15:21.429Z,69.49
2023-02-21T09:16:24.511Z,71.47
2023-02-21T09:17:27.362Z,70.70
2023-02-21T09:18:31.832Z,68.70
2023-02-21T09:19:35.184Z,68.32
2023-02-21T09:20:42.181Z,69.44
2023-02-21T09:21:48.213Z,70.93
2023-02-21T09:22:52.020Z,68.10
2023-02-21T09:23:56.891Z,72.06
2023-02-21T09:25:01.071Z,69.50
2023-02-21T09:26:04.212Z,69.54
2023-02-21T09:27:07.271Z,73.09
2023-02-21T09:28:10.387Z,71.00
2023-02-21T09:29:13.281Z,71.00
2023-02-21T09:30:24.500Z,69.88
2023-02-21T09:31:27.723Z,71.54
2023-02-21T09:32:30.872Z,69.21
2023-02-21T09:33:34.331Z,69.07
2023-02-21T09:34:37.175Z,68.58
2023-02-21T09:35:40.049Z,67.55
2023-02-21T09:36:43.744Z,67.73
2023-02-21T09:37:47.074Z,68.57
2023-02-21T09:38:52.809Z,67.86
2023-02-21T09:39:55.830Z,69.58
2023-02-21T09:41:05.512Z,73.70
2023-02-21T09:42:14.313Z,71.41
2023-02-21T09:43:36.917Z,70.15
2023-02-21T09:44:40.546Z,71.26
2023-02-21T09:45:44.744Z,69.10
2023-02-21T09:46:56.286Z,70.86
2023-02-21T09:48:03.214Z,69.90
2023-02-21T09:49:14.113Z,71.41
2023-02-21T09:50:23.396Z,71.00
2023-02-21T09:51:26.739Z,70.89
2023-02-21T09:52:38.165Z,70.57
2023-02-21T09:53:47.477Z,70.91
2023-02-21T09:54:57.679Z,72.66
2023-02-21T09:56:06.656Z,71.22
2023-02-21T09:57:15.114Z,71.39
2023-02-21T09:58:20.408Z,72.75
2023-02-21T09:59:23.393Z,72.33
2023-02-21T10:00:33.008Z,69.56
2023-02-21T10:01:54.479Z,69.97
2023-02-21T10:03:03.367Z,70.35
2023-02-21T10:04:25.886Z,72.97
2023-02-21T10:05:47.422Z,71.89
2023-02-21T10:06:58.827Z,71.68
2023-02-21T10:08:26.196Z,70.13
2023-02-21T10:09:50.052Z,67.66
2023-02-21T10:10:58.549Z,68.92
2023-02-21T10:12:23.468Z,71.17
2023-02-21T10:13:43.290Z,70.51
2023-02-21T10:15:16.433Z,72.21
2023-02-21T10:16:29.210Z,74.82
2023-02-21T10:17:40.036Z,74.09
2023-02-21T10:18:52.813Z,71.22
2023-02-21T10:20:05.339Z,70.84
2023-02-21T10:21:23.236Z,68.77
2023-02-21T10:22:33.192Z,69.05
2023-02-21T10:23:40.845Z,70.45
2023-02-21T10:24:43.951Z,73.96
2023-02-21T10:25:47.052Z,71.40
2023-02-21T10:26:59.997Z,74.08
2023-02-21T10:28:03.169Z,73.11
2023-02-21T10:29:17.892Z,71.41
2023-02-21T10:30:35.412Z,70.09
2023-02-21T10:31:42.176Z,70.38
2023-02-21T10:32:45.102Z,70.62
2023-02-21T10:33:48.092Z,69.55
2023-02-21T10:34:52.171Z,70.97
2023-02-21T10:35:55.164Z,71.00
2023-02-21T10:37:11.782Z,71.05
2023-02-21T10:38:20.744Z,71.82
2023-02-21T10:39:42.817Z,71.20
2023-02-21T10:40:47.808Z,67.13
2023-02-21T10:41:52.147Z,68.54
2023-02-21T10:43:20.388Z,69.65
2023-02-21T10:44:30.472Z,68.42
2023-02-21T10:45:38.664Z,71.43
2023-02-21T10:46:49.930Z,70.86
2023-02-21T10:48:28.363Z,69.13
2023-02-21T10:49:44.455Z,70.78
2023-02-21T10:51:07.068Z,73.40
2023-02-21T10:52:21.218Z,68.72
2023-02-21T10:53:31.222Z,71.62
2023-02-21T10:54:35.468Z,70.33
2023-02-21T10:55:38.498Z,70.52
2023-02-21T10:56:41.912Z,70.59
2023-02-21T10:57:47.480Z,68.16
2023-02-21T10:58:52.626Z,68.82
2023-02-21T10:59:56.036Z,68.34
2023-02-21T11:01:14.824Z,70.77
2023-02-21T11:02:37.592Z,66.32
2023-02-21T11:03:49.226Z,65.80
2023-02-21T11:04:54.308Z,73.40
2023-02-21T11:05:58.553Z,67.82
2023-02-21T11:07:07.350Z,69.60
2023-02-21T11:08:11.831Z,69.41
2023-02-21T11:09:27.101Z,69.75
2023-02-21T11:10:39.183Z,72.35
2023-02-21T11:11:42.650Z,69.41
2023-02-21T11:12:45.575Z,70.69
2023-02-21T11:13:48.584Z,73.04
2023-02-21T11:14:51.440Z,69.48
2023-02-21T11:16:09.713Z,68.44
2023-02-21T11:17:17.207Z,67.55
2023-02-21T11:18:25.507Z,68.15
2023-02-21T11:19:28.618Z,66.92
2023-02-21T11:20:31.780Z,69.28
2023-02-21T11:21:34.810Z,68.77
2023-02-21T11:22:42.591Z,69.07
2023-02-21T11:24:04.508Z,69.89
2023-02-21T11:25:22.534Z,68.82
2023-02-21T11:26:25.609Z,70.98
2023-02-21T11:27:33.000Z,70.00
2023-02-21T11:28:40.613Z,68.64
2023-02-21T11:29:46.937Z,70.37
2023-02-21T11:30:59.316Z,69.86
2023-02-21T11:32:13.670Z,70.88
2023-02-21T11:33:21.217Z,70.29
2023-02-21T11:34:29.685Z,67.02
2023-02-21T11:35:40.158Z,67.19
2023-02-21T11:36:44.197Z,66.41
2023-02-21T11:37:52.031Z,66.38
2023-02-21T11:39:04.344Z,67.87
2023-02-21T11:40:22.901Z,67.77
2023-02-21T11:41:46.030Z,70.28
2023-02-21T11:42:48.924Z,67.74
2023-02-21T11:43:56.169Z,66.08
2023-02-21T11:45:12.527Z,67.95
2023-02-21T11:46:33.735Z,68.11
2023-02-21T11:47:45.088Z,66.13
2023-02-21T11:49:14.177Z,67.90
2023-02-21T11:50:39.679Z,66.94
2023-02-21T11:52:06.479Z,68.19
2023-02-21T11:53:23.285Z,67.14
2023-02-21T11:54:30.304Z,66.20
2023-02-21T11:55:35.142Z,67.84
2023-02-21T11:56:52.463Z,67.01
2023-02-21T11:58:23.565Z,68.98
2023-02-21T11:59:35.120Z,72.93
2023-02-21T12:01:03.247Z,71.16
2023-02-21T12:02:21.469Z,69.28
2023-02-21T12:03:42.148Z,67.33
2023-02-21T12:04:47.665Z,66.60
2023-02-21T12:06:02.022Z,69.04
2023-02-21T12:07:29.345Z,68.38
2023-02-21T12:08:47.328Z,67.84
2023-02-21T12:10:01.834Z,68.58
2023-02-21T12:11:27.389Z,67.32
2023-02-21T12:12:49.177Z,71.68
2023-02-21T12:14:19.600Z,63.71
2023-02-21T12:15:35.088Z,65.78
2023-02-21T12:17:16.457Z,67.83
2023-02-21T12:19:01.086Z,67.16
2023-02-21T12:20:18.946Z,64.43
2023-02-21T12:21:49.091Z,65.51
2023-02-21T12:23:14.100Z,64.15
2023-02-21T12:24:56.152Z,67.83
2023-02-21T12:26:02.090Z,63.42
2023-02-21T12:27:17.002Z,68.72
2023-02-21T12:28:35.017Z,65.06
2023-02-21T12:30:05.266Z,64.37
2023-02-21T12:31:24.335Z,65.22
2023-02-21T12:32:39.354Z,66.63
2023-02-21T12:34:04.849Z,64.21
2023-02-21T12:35:31.650Z,64.33
2023-02-21T12:37:12.557Z,66.01
2023-02-21T12:38:33.825Z,66.83
2023-02-21T12:40:10.117Z,68.60
2023-02-21T12:41:34.391Z,75.73
2023-02-21T12:42:53.658Z,69.77
2023-02-21T12:43:59.517Z,65.56
2023-02-21T12:45:39.474Z,68.49
2023-02-21T12:47:00.706Z,67.29
2023-02-21T12:48:21.543Z,63.41
2023-02-21T12:49:32.967Z,66.08
2023-02-21T12:50:40.294Z,64.39
2023-02-21T12:51:53.505Z,65.53
2023-02-21T12:53:03.389Z,66.67
2023-02-21T12:54:14.067Z,65.38
2023-02-21T12:55:26.196Z,65.43
2023-02-21T12:56:47.134Z,66.44
2023-02-21T12:58:17.818Z,70.13
2023-02-21T12:59:24.410Z,65.48
2023-02-21T13:00:34.628Z,65.48
2023-02-21T13:01:44.232Z,65.53
2023-02-21T13:03:12.022Z,67.52
2023-02-21T13:04:42.960Z,70.63
2023-02-21T13:05:57.849Z,68.62
2023-02-21T13:07:25.280Z,66.94
2023-02-21T13:08:32.698Z,65.73
2023-02-21T13:09:49.921Z,64.08
2023-02-21T13:11:00.131Z,64.37
2023-02-21T13:12:17.922Z,63.06
2023-02-21T13:13:34.746Z,65.12
2023-02-21T13:14:51.958Z,61.78
2023-02-21T13:15:57.585Z,62.51
2023-02-21T13:17:00.539Z,62.87
2023-02-21T13:18:24.635Z,62.59
2023-02-21T13:19:40.799Z,64.91
2023-02-21T13:20:57.700Z,65.90
2023-02-21T13:22:44.700Z,64.35
2023-02-21T13:24:39.674Z,68.64
2023-02-21T13:26:00.747Z,67.95
2023-02-21T13:27:15.585Z,68.53
2023-02-21T13:28:23.477Z,64.33
2023-02-21T13:29:32.708Z,69.28
2023-02-21T13:30:42.198Z,69.08
2023-02-21T13:31:46.064Z,63.50
2023-02-21T13:32:58.551Z,67.55
2023-02-21T13:34:02.481Z,64.79
2023-02-21T13:35:09.392Z,66.02
2023-02-21T13:36:23.720Z,67.28
2023-02-21T13:37:31.083Z,66.43
2023-02-21T13:38:33.988Z,63.94
2023-02-21T13:39:37.893Z,64.89
2023-02-21T13:40:52.325Z,65.09
2023-02-21T13:42:02.402Z,66.85
2023-02-21T13:43:12.723Z,68.86
2023-02-21T13:44:37.695Z,70.53
2023-02-21T13:45:41.388Z,66.32
2023-02-21T13:46:44.154Z,65.99
2023-02-21T13:48:00.083Z,66.52
2023-02-21T13:49:42.821Z,66.23
2023-02-21T13:50:51.817Z,65.10
2023-02-21T13:52:19.463Z,69.24
2023-02-21T13:53:32.530Z,62.44
2023-02-21T13:54:35.468Z,67.70
2023-02-21T13:55:39.326Z,67.45
2023-02-21T13:56:44.227Z,68.08
2023-02-21T13:57:50.108Z,61.55
2023-02-21T13:58:52.960Z,60.97
2023-02-21T13:59:55.807Z,60.19
2023-02-21T14:01:16.900Z,60.79
2023-02-21T14:02:31.302Z,68.02
2023-02-21T14:03:34.926Z,65.96
2023-02-21T14:05:00.475Z,64.35
2023-02-21T14:06:09.315Z,61.42
2023-02-21T14:07:12.270Z,62.84
2023-02-21T14:08:31.588Z,60.84
2023-02-21T14:09:38.358Z,61.45
2023-02-21T14:10:46.150Z,61.65
2023-02-21T14:11:52.081Z,62.74
2023-02-21T14:13:00.150Z,63.00
2023-02-21T14:14:18.368Z,63.30
2023-02-21T14:15:21.845Z,64.78
2023-02-21T14:16:49.537Z,61.81
2023-02-21T14:17:53.045Z,67.43
2023-02-21T14:19:07.902Z,67.48
2023-02-21T14:20:16.970Z,63.35
2023-02-21T14:21:37.208Z,66.11
2023-02-21T14:22:40.115Z,68.45
2023-02-21T14:23:53.504Z,63.24
2023-02-21T14:25:18.100Z,63.38
2023-02-21T14:26:57.837Z,62.96
2023-02-21T14:28:00.797Z,66.01
2023-02-21T14:29:11.061Z,65.95
2023-02-21T14:30:24.294Z,63.66
2023-02-21T14:31:46.322Z,64.40
2023-02-21T14:32:51.756Z,63.26
2023-02-21T14:33:58.493Z,64.31
2023-02-21T14:35:02.911Z,66.26
2023-02-21T14:36:15.224Z,66.94
2023-02-21T14:37:36.321Z,64.17
2023-02-21T14:38:42.426Z,63.69
2023-02-21T14:39:49.740Z,66.76
2023-02-21T14:41:19.119Z,64.35
2023-02-21T14:42:21.947Z,64.54
2023-02-21T14:43:28.273Z,70.11
2023-02-21T14:44:59.268Z,66.46
2023-02-21T14:46:45.023Z,64.51
2023-02-21T14:48:06.220Z,69.93
2023-02-21T14:49:18.277Z,66.96
2023-02-21T14:50:54.700Z,69.62
2023-02-21T14:52:17.303Z,65.14
2023-02-21T14:53:49.108Z,64.40
2023-02-21T14:55:24.148Z,71.96
2023-02-21T14:57:15.445Z,64.69
2023-02-21T14:58:47.912Z,66.50
2023-02-21T15:00:21.130Z,72.18
2023-02-21T15:01:33.944Z,69.69
2023-02-21T15:02:53.236Z,68.36
2023-02-21T15:04:11.394Z,69.35
2023-02-21T15:05:20.118Z,72.51
2023-02-21T15:06:24.393Z,66.81
2023-02-21T15:07:40.132Z,66.00
2023-02-21T15:08:45.806Z,65.30
2023-02-21T15:10:11.343Z,65.58
2023-02-21T15:11:39.523Z,66.33
2023-02-21T15:13:04.222Z,66.80
2023-02-21T15:14:23.572Z,67.08
2023-02-21T15:15:42.450Z,69.05
2023-02-21T15:16:47.284Z,68.77
2023-02-21T15:18:07.550Z,67.81
2023-02-21T15:19:20.771Z,67.27
2023-02-21T15:20:23.696Z,67.21